createdAt,value
2017-03-18T00:00:34.118Z,0
2017-03-18T00:01:34.408Z,0
2017-03-18T00:02:34.384Z,0
2017-03-18T00:03:34.388Z,0
2017-03-18T00:04:34.358Z,0
2017-03-18T00:05:34.032Z,0
2017-03-18T00:06:34.010Z,0
2017-03-18T00:07:34.278Z,0
2017-03-18T00:08:34.275Z,0
2017-03-18T00:09:34.302Z,0
2017-03-18T00:10:34.241Z,0
2017-03-18T00:11:33.930Z,0
2017-03-18T00:12:34.208Z,0
2017-03-18T00:13:34.197Z,0
2017-03-18T00:14:33.880Z,0
2017-03-18T00:15:33.854Z,0
2017-03-18T00:16:34.138Z,0
2017-03-18T00:17:34.140Z,0
2017-03-18T00:18:33.812Z,0
2017-03-18T00:19:33.779Z,0
2017-03-18T00:20:34.054Z,0
2017-03-18T00:21:34.030Z,0
2017-03-18T00:22:34.040Z,0
2017-03-18T00:23:34.008Z,0
2017-03-18T00:24:33.991Z,0
2017-03-18T00:25:33.965Z,0
2017-03-18T00:26:33.638Z,0
2017-03-18T00:27:33.910Z,0
2017-03-18T00:28:33.903Z,0
2017-03-18T00:29:33.873Z,0
2017-03-18T00:30:33.884Z,0
2017-03-18T00:31:33.830Z,0
2017-03-18T00:32:33.825Z,0
2017-03-18T00:33:33.523Z,0
2017-03-18T00:34:33.786Z,0
2017-03-18T00:35:33.767Z,0
2017-03-18T00:36:33.742Z,0
2017-03-18T00:37:33.755Z,0
2017-03-18T00:38:33.724Z,0
2017-03-18T00:39:33.684Z,0
2017-03-18T00:40:33.670Z,0
2017-03-18T00:41:33.651Z,0
2017-03-18T00:42:33.647Z,0
2017-03-18T00:43:33.613Z,0
2017-03-18T00:44:33.584Z,0
2017-03-18T00:45:33.271Z,0
2017-03-18T00:46:33.288Z,0
2017-03-18T00:47:33.558Z,0
2017-03-18T00:48:33.530Z,0
2017-03-18T00:49:33.490Z,0
2017-03-18T00:50:33.476Z,0
2017-03-18T00:51:33.139Z,0
2017-03-18T00:52:33.450Z,0
2017-03-18T00:53:33.428Z,0
2017-03-18T00:54:33.413Z,0
2017-03-18T00:55:33.361Z,0
2017-03-18T00:56:33.363Z,0
2017-03-18T00:57:33.049Z,0
2017-03-18T00:58:33.309Z,0
2017-03-18T00:59:33.317Z,0
2017-03-18T01:00:33.277Z,0
2017-03-18T01:01:33.277Z,0
2017-03-18T01:02:33.227Z,0
2017-03-18T01:03:32.945Z,0
2017-03-18T01:04:33.206Z,0
2017-03-18T01:05:33.190Z,0
2017-03-18T01:06:32.861Z,0
2017-03-18T01:07:33.159Z,0
2017-03-18T01:08:33.127Z,0
2017-03-18T01:09:33.115Z,0
2017-03-18T01:10:33.094Z,0
2017-03-18T01:11:33.092Z,0
2017-03-18T01:12:33.038Z,0
2017-03-18T01:13:33.051Z,0
2017-03-18T01:14:33.030Z,0
2017-03-18T01:15:32.967Z,0
2017-03-18T01:16:32.978Z,0
2017-03-18T01:17:32.987Z,0
2017-03-18T01:18:32.952Z,0
2017-03-18T01:19:32.625Z,0
2017-03-18T01:20:46.277Z,0
2017-03-18T01:21:33.083Z,0
2017-03-18T01:22:32.895Z,0
2017-03-18T01:23:47.157Z,0
2017-03-18T01:24:32.527Z,0
2017-03-18T01:25:32.797Z,0
2017-03-18T01:26:32.200Z,0
2017-03-18T01:27:32.811Z,0
2017-03-18T01:28:32.762Z,0
2017-03-18T01:29:32.732Z,0
2017-03-18T01:30:32.397Z,0
2017-03-18T01:31:32.688Z,0
2017-03-18T01:32:32.056Z,0
2017-03-18T01:33:32.333Z,0
2017-03-18T01:34:32.647Z,0
2017-03-18T01:35:32.625Z,0
2017-03-18T01:36:32.289Z,0
2017-03-18T01:37:32.583Z,0
2017-03-18T01:38:32.581Z,0
2017-03-18T01:39:32.239Z,0
2017-03-18T01:40:32.196Z,0
2017-03-18T01:41:32.491Z,0
2017-03-18T01:42:32.488Z,0
2017-03-18T01:43:32.453Z,0
2017-03-18T01:44:32.441Z,0
2017-03-18T01:45:32.416Z,0
2017-03-18T01:46:32.406Z,0
2017-03-18T01:47:32.365Z,0
2017-03-18T01:48:32.339Z,0
2017-03-18T01:49:32.330Z,0
2017-03-18T01:50:32.315Z,0
2017-03-18T01:51:32.329Z,0
2017-03-18T01:52:32.296Z,0
2017-03-18T01:53:32.504Z,0
2017-03-18T01:54:32.248Z,0
2017-03-18T01:55:32.226Z,0
2017-03-18T01:56:32.204Z,0
2017-03-18T01:57:32.405Z,0
2017-03-18T01:58:32.176Z,0
2017-03-18T01:59:32.173Z,0
2017-03-18T02:00:32.110Z,0
2017-03-18T02:01:32.110Z,0
2017-03-18T02:02:32.104Z,0
2017-03-18T02:03:32.071Z,0
2017-03-18T02:04:32.072Z,0
2017-03-18T02:05:32.031Z,0
2017-03-18T02:06:32.010Z,0
2017-03-18T02:07:31.981Z,0
2017-03-18T02:08:31.983Z,0
2017-03-18T02:09:31.969Z,0
2017-03-18T02:10:31.649Z,0
2017-03-18T02:11:31.609Z,0
2017-03-18T02:12:31.899Z,0
2017-03-18T02:13:31.879Z,0
2017-03-18T02:14:31.917Z,0
2017-03-18T02:15:31.846Z,0
2017-03-18T02:16:31.820Z,0
2017-03-18T02:17:31.801Z,0
2017-03-18T02:18:31.771Z,0
2017-03-18T02:19:31.487Z,0
2017-03-18T02:20:31.751Z,0
2017-03-18T02:21:31.721Z,0
2017-03-18T02:22:31.938Z,0
2017-03-18T02:23:31.697Z,0
2017-03-18T02:24:31.693Z,0
2017-03-18T02:25:31.668Z,0
2017-03-18T02:26:31.032Z,0
2017-03-18T02:27:31.847Z,0
2017-03-18T02:28:31.305Z,0
2017-03-18T02:29:31.579Z,0
2017-03-18T02:30:31.584Z,0
2017-03-18T02:31:31.234Z,0
2017-03-18T02:32:31.229Z,0
2017-03-18T02:33:31.519Z,0
2017-03-18T02:34:31.501Z,0
2017-03-18T02:35:31.462Z,0
2017-03-18T02:36:31.460Z,0
2017-03-18T02:37:31.444Z,0
2017-03-18T02:38:31.412Z,0
2017-03-18T02:39:31.397Z,0
2017-03-18T02:40:31.367Z,0
2017-03-18T02:41:31.369Z,0
2017-03-18T02:42:31.351Z,0
2017-03-18T02:43:31.334Z,0
2017-03-18T02:44:31.316Z,0
2017-03-18T02:45:30.968Z,0
2017-03-18T02:46:31.266Z,0
2017-03-18T02:47:30.919Z,0
2017-03-18T02:48:31.215Z,0
2017-03-18T02:49:31.202Z,0
2017-03-18T02:50:31.158Z,0
2017-03-18T02:51:30.856Z,0
2017-03-18T02:52:31.138Z,0
2017-03-18T02:53:31.141Z,0
2017-03-18T02:54:31.104Z,0
2017-03-18T02:55:44.481Z,0
2017-03-18T02:56:31.066Z,0
2017-03-18T02:57:31.030Z,0
2017-03-18T02:58:45.633Z,0
2017-03-18T02:59:31.010Z,0
2017-03-18T03:00:31.002Z,0
2017-03-18T03:01:30.962Z,0
2017-03-18T03:02:30.974Z,0
2017-03-18T03:03:31.392Z,0
2017-03-18T03:04:31.110Z,0
2017-03-18T03:05:30.880Z,0
2017-03-18T03:06:30.860Z,0
2017-03-18T03:07:30.844Z,0
2017-03-18T03:08:30.848Z,0
2017-03-18T03:09:30.809Z,0
2017-03-18T03:10:30.835Z,0
2017-03-18T03:11:30.474Z,0
2017-03-18T03:12:30.776Z,0
2017-03-18T03:13:30.739Z,0
2017-03-18T03:14:30.756Z,0
2017-03-18T03:15:30.709Z,0
2017-03-18T03:16:30.685Z,0
2017-03-18T03:17:30.684Z,0
2017-03-18T03:18:30.358Z,0
2017-03-18T03:19:30.622Z,0
2017-03-18T03:20:30.291Z,0
2017-03-18T03:21:30.608Z,0
2017-03-18T03:22:30.563Z,0
2017-03-18T03:23:30.251Z,0
2017-03-18T03:24:30.544Z,0
2017-03-18T03:25:30.511Z,0
2017-03-18T03:26:30.506Z,0
2017-03-18T03:27:30.469Z,0
2017-03-18T03:28:30.384Z,0
2017-03-18T03:29:30.452Z,0
2017-03-18T03:30:30.422Z,0
2017-03-18T03:31:44.719Z,0
2017-03-18T03:32:30.373Z,0
2017-03-18T03:33:30.348Z,0
2017-03-18T03:34:30.370Z,0
2017-03-18T03:35:30.319Z,0
2017-03-18T03:36:30.285Z,0
2017-03-18T03:37:30.276Z,0
2017-03-18T03:38:29.963Z,0
2017-03-18T03:39:29.965Z,0
2017-03-18T03:40:29.932Z,0
2017-03-18T03:41:29.924Z,0
2017-03-18T03:42:30.199Z,0
2017-03-18T03:43:30.186Z,0
2017-03-18T03:44:30.159Z,0
2017-03-18T03:45:29.823Z,0
2017-03-18T03:46:30.106Z,0
2017-03-18T03:47:30.115Z,0
2017-03-18T03:48:30.111Z,0
2017-03-18T03:49:30.051Z,0
2017-03-18T03:50:30.034Z,0
2017-03-18T03:51:29.728Z,0
2017-03-18T03:52:29.981Z,0
2017-03-18T03:53:29.993Z,0
2017-03-18T03:54:29.983Z,0
2017-03-18T03:55:29.658Z,0
2017-03-18T03:56:29.626Z,0
2017-03-18T03:57:29.596Z,0
2017-03-18T03:58:29.603Z,0
2017-03-18T03:59:29.921Z,0
2017-03-18T04:00:29.851Z,0
2017-03-18T04:01:30.057Z,0
2017-03-18T04:02:29.840Z,0
2017-03-18T04:03:29.480Z,0
2017-03-18T04:04:29.808Z,0
2017-03-18T04:05:29.141Z,0
2017-03-18T04:06:29.439Z,0
2017-03-18T04:07:29.733Z,0
2017-03-18T04:08:29.705Z,0
2017-03-18T04:09:29.688Z,0
2017-03-18T04:10:29.653Z,0
2017-03-18T04:11:29.653Z,0
2017-03-18T04:12:29.644Z,0
2017-03-18T04:13:29.341Z,0
2017-03-18T04:14:29.298Z,0
2017-03-18T04:15:29.548Z,0
2017-03-18T04:16:29.257Z,0
2017-03-18T04:17:29.245Z,0
2017-03-18T04:18:29.529Z,0
2017-03-18T04:19:29.189Z,0
2017-03-18T04:20:29.485Z,0
2017-03-18T04:21:29.438Z,0
2017-03-18T04:22:29.440Z,0
2017-03-18T04:23:29.409Z,0
2017-03-18T04:24:29.084Z,0
2017-03-18T04:25:29.393Z,0
2017-03-18T04:26:29.059Z,0
2017-03-18T04:27:29.052Z,0
2017-03-18T04:28:29.336Z,0
2017-03-18T04:29:29.321Z,0
2017-03-18T04:30:29.293Z,0
2017-03-18T04:31:29.282Z,0
2017-03-18T04:32:29.231Z,0
2017-03-18T04:33:28.612Z,0
2017-03-18T04:34:28.926Z,0
2017-03-18T04:35:29.177Z,0
2017-03-18T04:36:28.878Z,0
2017-03-18T04:37:43.749Z,0
2017-03-18T04:38:29.122Z,0
2017-03-18T04:39:29.314Z,0
2017-03-18T04:40:29.086Z,0
2017-03-18T04:41:28.763Z,0
2017-03-18T04:42:29.059Z,0
2017-03-18T04:43:29.255Z,0
2017-03-18T04:44:29.009Z,0
2017-03-18T04:45:28.991Z,0
2017-03-18T04:46:28.972Z,0
2017-03-18T04:47:28.980Z,0
2017-03-18T04:48:28.945Z,0
2017-03-18T04:49:28.943Z,0
2017-03-18T04:50:28.594Z,0
2017-03-18T04:51:28.885Z,0
2017-03-18T04:52:28.844Z,0
2017-03-18T04:53:28.851Z,0
2017-03-18T04:54:28.830Z,0
2017-03-18T04:55:28.804Z,0
2017-03-18T04:56:28.810Z,0
2017-03-18T04:57:28.777Z,0
2017-03-18T04:58:28.750Z,0
2017-03-18T04:59:28.445Z,0
2017-03-18T05:00:28.392Z,0
2017-03-18T05:01:28.677Z,0
2017-03-18T05:02:28.669Z,0
2017-03-18T05:03:28.373Z,0
2017-03-18T05:04:28.335Z,0
2017-03-18T05:05:28.316Z,0
2017-03-18T05:06:28.307Z,0
2017-03-18T05:07:28.567Z,0
2017-03-18T05:08:28.546Z,0
2017-03-18T05:09:28.532Z,0
2017-03-18T05:10:28.218Z,0
2017-03-18T05:11:28.695Z,0
2017-03-18T05:12:28.517Z,0
2017-03-18T05:13:28.159Z,0
2017-03-18T05:14:28.149Z,0
2017-03-18T05:15:28.169Z,0
2017-03-18T05:16:28.381Z,0
2017-03-18T05:17:27.805Z,0
2017-03-18T05:18:28.370Z,0
2017-03-18T05:19:28.336Z,0
2017-03-18T05:20:28.005Z,0
2017-03-18T05:21:27.989Z,5
2017-03-18T05:22:28.268Z,5
2017-03-18T05:23:27.955Z,5
2017-03-18T05:24:27.964Z,5
2017-03-18T05:25:28.222Z,5
2017-03-18T05:26:28.208Z,5
2017-03-18T05:27:28.183Z,5
2017-03-18T05:28:28.172Z,5
2017-03-18T05:29:27.856Z,10
2017-03-18T05:30:28.134Z,10
2017-03-18T05:31:28.106Z,10
2017-03-18T05:32:27.791Z,10
2017-03-18T05:33:28.091Z,15
2017-03-18T05:34:27.753Z,15
2017-03-18T05:35:27.752Z,15
2017-03-18T05:36:28.019Z,15
2017-03-18T05:37:28.009Z,20
2017-03-18T05:38:27.676Z,20
2017-03-18T05:39:27.958Z,25
2017-03-18T05:40:27.920Z,25
2017-03-18T05:41:27.914Z,30
2017-03-18T05:42:27.580Z,30
2017-03-18T05:43:27.279Z,30
2017-03-18T05:44:27.871Z,30
2017-03-18T05:45:27.827Z,30
2017-03-18T05:46:27.198Z,35
2017-03-18T05:47:27.790Z,35
2017-03-18T05:48:27.799Z,40
2017-03-18T05:49:27.762Z,50
2017-03-18T05:50:27.423Z,50
2017-03-18T05:51:27.735Z,65
2017-03-18T05:52:27.678Z,50
2017-03-18T05:53:27.686Z,45
2017-03-18T05:54:27.666Z,55
2017-03-18T05:55:27.632Z,60
2017-03-18T05:56:27.605Z,70
2017-03-18T05:57:27.577Z,80
2017-03-18T05:58:27.584Z,85
2017-03-18T05:59:27.589Z,95
2017-03-18T06:00:27.543Z,100
2017-03-18T06:01:27.562Z,85
2017-03-18T06:02:27.480Z,90
2017-03-18T06:03:27.180Z,110
2017-03-18T06:04:27.439Z,110
2017-03-18T06:05:27.159Z,105
2017-03-18T06:06:27.101Z,100
2017-03-18T06:07:27.414Z,110
2017-03-18T06:08:27.385Z,125
2017-03-18T06:09:27.368Z,125
2017-03-18T06:10:27.353Z,135
2017-03-18T06:11:27.319Z,150
2017-03-18T06:12:27.015Z,160
2017-03-18T06:13:27.271Z,155
2017-03-18T06:14:27.262Z,175
2017-03-18T06:15:27.232Z,175
2017-03-18T06:16:27.234Z,185
2017-03-18T06:17:26.624Z,180
2017-03-18T06:18:26.930Z,165
2017-03-18T06:19:26.870Z,170
2017-03-18T06:20:27.147Z,180
2017-03-18T06:21:27.125Z,175
2017-03-18T06:22:26.504Z,195
2017-03-18T06:23:26.783Z,195
2017-03-18T06:24:27.068Z,190
2017-03-18T06:25:27.060Z,215
2017-03-18T06:26:27.022Z,215
2017-03-18T06:27:27.019Z,200
2017-03-18T06:28:26.659Z,195
2017-03-18T06:29:26.965Z,200
2017-03-18T06:30:26.636Z,180
2017-03-18T06:31:26.938Z,185
2017-03-18T06:32:26.602Z,195
2017-03-18T06:33:26.894Z,205
2017-03-18T06:34:26.859Z,225
2017-03-18T06:35:26.220Z,210
2017-03-18T06:36:26.791Z,215
2017-03-18T06:37:26.489Z,215
2017-03-18T06:38:26.801Z,215
2017-03-18T06:39:26.432Z,210
2017-03-18T06:40:26.736Z,220
2017-03-18T06:41:26.099Z,225
2017-03-18T06:42:26.382Z,260
2017-03-18T06:43:26.377Z,260
2017-03-18T06:44:26.037Z,260
2017-03-18T06:45:26.309Z,280
2017-03-18T06:46:26.605Z,275
2017-03-18T06:47:26.578Z,325
2017-03-18T06:48:26.569Z,305
2017-03-18T06:49:26.553Z,315
2017-03-18T06:50:26.238Z,345
2017-03-18T06:51:26.501Z,360
2017-03-18T06:52:26.491Z,375
2017-03-18T06:53:26.163Z,375
2017-03-18T06:54:26.152Z,345
2017-03-18T06:55:26.397Z,340
2017-03-18T06:56:26.397Z,350
2017-03-18T06:57:26.420Z,380
2017-03-18T06:58:26.375Z,355
2017-03-18T06:59:26.339Z,415
2017-03-18T07:00:26.327Z,375
2017-03-18T07:01:25.720Z,395
2017-03-18T07:02:25.985Z,390
2017-03-18T07:03:26.280Z,335
2017-03-18T07:04:26.245Z,335
2017-03-18T07:05:25.628Z,385
2017-03-18T07:06:25.900Z,385
2017-03-18T07:07:25.884Z,385
2017-03-18T07:08:26.189Z,380
2017-03-18T07:09:26.155Z,400
2017-03-18T07:10:26.115Z,410
2017-03-18T07:11:25.814Z,380
2017-03-18T07:12:25.786Z,420
2017-03-18T07:13:25.759Z,445
2017-03-18T07:14:25.757Z,425
2017-03-18T07:15:26.020Z,435
2017-03-18T07:16:25.996Z,470
2017-03-18T07:17:25.980Z,475
2017-03-18T07:18:25.398Z,485
2017-03-18T07:19:25.989Z,505
2017-03-18T07:20:25.927Z,545
2017-03-18T07:21:25.598Z,515
2017-03-18T07:22:25.581Z,485
2017-03-18T07:23:25.867Z,470
2017-03-18T07:24:25.824Z,505
2017-03-18T07:25:25.519Z,510
2017-03-18T07:26:25.803Z,490
2017-03-18T07:27:25.808Z,505
2017-03-18T07:28:25.808Z,505
2017-03-18T07:29:25.752Z,490
2017-03-18T07:30:25.741Z,505
2017-03-18T07:31:25.697Z,480
2017-03-18T07:32:25.679Z,515
2017-03-18T07:33:25.665Z,530
2017-03-18T07:34:25.668Z,525
2017-03-18T07:35:25.613Z,530
2017-03-18T07:36:25.604Z,520
2017-03-18T07:37:25.270Z,530
2017-03-18T07:38:24.966Z,530
2017-03-18T07:39:25.578Z,535
2017-03-18T07:40:25.516Z,565
2017-03-18T07:41:25.522Z,565
2017-03-18T07:42:25.499Z,570
2017-03-18T07:43:25.456Z,595
2017-03-18T07:44:25.424Z,645
2017-03-18T07:45:25.099Z,665
2017-03-18T07:46:25.422Z,625
2017-03-18T07:47:25.401Z,635
2017-03-18T07:48:25.420Z,660
2017-03-18T07:49:25.054Z,635
2017-03-18T07:50:25.342Z,675
2017-03-18T07:51:25.307Z,625
2017-03-18T07:52:25.309Z,620
2017-03-18T07:53:25.293Z,640
2017-03-18T07:54:25.285Z,655
2017-03-18T07:55:25.219Z,630
2017-03-18T07:56:25.220Z,675
2017-03-18T07:57:25.185Z,660
2017-03-18T07:58:25.175Z,685
2017-03-18T07:59:25.165Z,655
2017-03-18T08:00:25.111Z,680
2017-03-18T08:01:24.801Z,710
2017-03-18T08:02:24.797Z,720
2017-03-18T08:03:24.753Z,720
2017-03-18T08:04:25.051Z,740
2017-03-18T08:05:24.708Z,760
2017-03-18T08:06:24.699Z,740
2017-03-18T08:07:24.994Z,640
2017-03-18T08:08:24.676Z,670
2017-03-18T08:09:24.636Z,725
2017-03-18T08:10:24.631Z,825
2017-03-18T08:11:24.584Z,830
2017-03-18T08:12:24.568Z,835
2017-03-18T08:13:24.890Z,855
2017-03-18T08:14:24.577Z,875
2017-03-18T08:15:24.812Z,855
2017-03-18T08:16:24.510Z,840
2017-03-18T08:17:24.773Z,860
2017-03-18T08:18:24.767Z,830
2017-03-18T08:19:24.772Z,805
2017-03-18T08:20:24.740Z,845
2017-03-18T08:21:24.699Z,815
2017-03-18T08:22:24.711Z,845
2017-03-18T08:23:24.669Z,890
2017-03-18T08:24:24.685Z,900
2017-03-18T08:25:24.647Z,895
2017-03-18T08:26:24.318Z,885
2017-03-18T08:27:24.589Z,895
2017-03-18T08:28:24.583Z,865
2017-03-18T08:29:24.531Z,850
2017-03-18T08:30:24.536Z,840
2017-03-18T08:31:24.523Z,840
2017-03-18T08:32:24.197Z,835
2017-03-18T08:33:24.173Z,860
2017-03-18T08:34:24.479Z,900
2017-03-18T08:35:24.137Z,925
2017-03-18T08:36:24.407Z,915
2017-03-18T08:37:24.409Z,915
2017-03-18T08:38:23.780Z,895
2017-03-18T08:39:24.373Z,890
2017-03-18T08:40:24.326Z,930
2017-03-18T08:41:24.305Z,960
2017-03-18T08:42:24.289Z,980
2017-03-18T08:43:24.293Z,1010
2017-03-18T08:44:24.263Z,980
2017-03-18T08:45:23.936Z,1030
2017-03-18T08:46:24.231Z,1105
2017-03-18T08:47:24.182Z,1175
2017-03-18T08:48:23.889Z,1095
2017-03-18T08:49:24.155Z,1015
2017-03-18T08:50:24.130Z,995
2017-03-18T08:51:24.135Z,1040
2017-03-18T08:52:24.104Z,1085
2017-03-18T08:53:24.084Z,1060
2017-03-18T08:54:24.049Z,1045
2017-03-18T08:55:24.035Z,1045
2017-03-18T08:56:24.014Z,1065
2017-03-18T08:57:24.005Z,1110
2017-03-18T08:58:23.418Z,1175
2017-03-18T08:59:23.960Z,1110
2017-03-18T09:00:23.929Z,1105
2017-03-18T09:01:23.933Z,1095
2017-03-18T09:02:23.918Z,1100
2017-03-18T09:03:23.893Z,1120
2017-03-18T09:04:23.891Z,1125
2017-03-18T09:05:23.350Z,1125
2017-03-18T09:06:23.835Z,1115
2017-03-18T09:07:23.802Z,1045
2017-03-18T09:08:23.808Z,1075
2017-03-18T09:09:23.789Z,1100
2017-03-18T09:10:23.747Z,1120
2017-03-18T09:11:23.430Z,1095
2017-03-18T09:12:23.125Z,1135
2017-03-18T09:13:23.412Z,1120
2017-03-18T09:14:23.386Z,1045
2017-03-18T09:15:23.646Z,995
2017-03-18T09:16:23.335Z,1035
2017-03-18T09:17:23.014Z,1080
2017-03-18T09:18:23.302Z,1095
2017-03-18T09:19:23.292Z,1120
2017-03-18T09:20:23.256Z,1125
2017-03-18T09:21:23.233Z,1190
2017-03-18T09:22:23.533Z,1175
2017-03-18T09:23:23.219Z,1140
2017-03-18T09:24:22.884Z,1050
2017-03-18T09:25:23.156Z,990
2017-03-18T09:26:23.453Z,950
2017-03-18T09:27:23.137Z,1020
2017-03-18T09:28:23.118Z,1060
2017-03-18T09:29:23.407Z,1120
2017-03-18T09:30:23.089Z,1145
2017-03-18T09:31:23.045Z,1180
2017-03-18T09:32:23.333Z,1190
2017-03-18T09:33:23.020Z,1195
2017-03-18T09:34:22.688Z,1110
2017-03-18T09:35:23.275Z,1095
2017-03-18T09:36:22.962Z,1065
2017-03-18T09:37:22.933Z,1050
2017-03-18T09:38:23.199Z,1035
2017-03-18T09:39:22.890Z,1050
2017-03-18T09:40:22.874Z,1070
2017-03-18T09:41:22.851Z,1110
2017-03-18T09:42:23.151Z,1110
2017-03-18T09:43:23.132Z,1070
2017-03-18T09:44:23.128Z,1040
2017-03-18T09:45:23.096Z,1020
2017-03-18T09:46:23.078Z,1055
2017-03-18T09:47:22.422Z,1065
2017-03-18T09:48:23.010Z,1080
2017-03-18T09:49:22.429Z,1065
2017-03-18T09:50:22.694Z,1080
2017-03-18T09:51:22.678Z,1115
2017-03-18T09:52:22.965Z,1105
2017-03-18T09:53:22.633Z,1135
2017-03-18T09:54:22.623Z,1195
2017-03-18T09:55:22.883Z,1235
2017-03-18T09:56:22.571Z,1245
2017-03-18T09:57:22.552Z,1185
2017-03-18T09:58:22.842Z,1160
2017-03-18T09:59:22.516Z,1180
2017-03-18T10:00:22.802Z,1240
2017-03-18T10:01:22.480Z,1255
2017-03-18T10:02:22.772Z,1250
2017-03-18T10:03:22.746Z,1200
2017-03-18T10:04:22.723Z,1240
2017-03-18T10:05:22.405Z,1260
2017-03-18T10:06:22.699Z,1325
2017-03-18T10:07:22.385Z,1405
2017-03-18T10:08:22.350Z,1425
2017-03-18T10:09:22.636Z,1370
2017-03-18T10:10:22.318Z,1310
2017-03-18T10:11:22.577Z,1305
2017-03-18T10:12:22.574Z,1330
2017-03-18T10:13:22.574Z,1330
2017-03-18T10:14:21.938Z,1335
2017-03-18T10:15:22.511Z,1325
2017-03-18T10:16:22.175Z,1320
2017-03-18T10:17:22.490Z,1410
2017-03-18T10:18:22.463Z,1440
2017-03-18T10:19:21.875Z,1405
2017-03-18T10:20:22.406Z,1370
2017-03-18T10:21:22.406Z,1355
2017-03-18T10:22:22.087Z,1350
2017-03-18T10:23:22.056Z,1350
2017-03-18T10:24:22.052Z,1340
2017-03-18T10:25:22.008Z,1340
2017-03-18T10:26:22.016Z,1305
2017-03-18T10:27:21.697Z,1255
2017-03-18T10:28:22.294Z,1210
2017-03-18T10:29:21.968Z,1195
2017-03-18T10:30:22.239Z,1200
2017-03-18T10:31:21.939Z,1155
2017-03-18T10:32:21.878Z,1140
2017-03-18T10:33:21.890Z,1210
2017-03-18T10:34:22.190Z,1230
2017-03-18T10:35:22.147Z,1245
2017-03-18T10:36:22.137Z,1270
2017-03-18T10:37:21.802Z,1240
2017-03-18T10:38:22.087Z,1220
2017-03-18T10:39:22.055Z,1200
2017-03-18T10:40:22.087Z,1200
2017-03-18T10:41:22.042Z,1225
2017-03-18T10:42:22.012Z,1250
2017-03-18T10:43:22.012Z,1320
2017-03-18T10:44:21.991Z,1360
2017-03-18T10:45:21.971Z,1370
2017-03-18T10:46:21.947Z,1345
2017-03-18T10:47:21.914Z,1355
2017-03-18T10:48:21.927Z,1340
2017-03-18T10:49:21.882Z,1360
2017-03-18T10:50:21.868Z,1370
2017-03-18T10:51:21.550Z,1425
2017-03-18T10:52:21.831Z,1485
2017-03-18T10:53:21.813Z,1465
2017-03-18T10:54:21.818Z,1480
2017-03-18T10:55:21.765Z,1415
2017-03-18T10:56:21.769Z,1395
2017-03-18T10:57:21.738Z,1375
2017-03-18T10:58:21.716Z,1405
2017-03-18T10:59:21.723Z,1425
2017-03-18T11:00:21.671Z,1480
2017-03-18T11:01:21.668Z,1460
2017-03-18T11:02:21.361Z,1460
2017-03-18T11:03:21.361Z,1510
2017-03-18T11:04:21.612Z,1565
2017-03-18T11:05:21.609Z,1560
2017-03-18T11:06:21.564Z,1640
2017-03-18T11:07:21.554Z,1735
2017-03-18T11:08:21.536Z,1710
2017-03-18T11:09:21.510Z,1690
2017-03-18T11:10:21.513Z,1620
2017-03-18T11:11:21.184Z,1585
2017-03-18T11:12:21.474Z,1550
2017-03-18T11:13:21.449Z,1510
2017-03-18T11:14:21.416Z,1405
2017-03-18T11:15:21.424Z,1345
2017-03-18T11:16:21.378Z,1325
2017-03-18T11:17:21.361Z,1350
2017-03-18T11:18:21.397Z,1340
2017-03-18T11:19:21.335Z,1340
2017-03-18T11:20:21.308Z,1300
2017-03-18T11:21:21.269Z,1345
2017-03-18T11:22:21.288Z,1375
2017-03-18T11:23:21.268Z,1365
2017-03-18T11:24:21.243Z,1355
2017-03-18T11:25:21.214Z,1300
2017-03-18T11:26:21.203Z,1295
2017-03-18T11:27:21.174Z,1240
2017-03-18T11:28:21.162Z,1205
2017-03-18T11:29:21.143Z,1145
2017-03-18T11:30:21.125Z,1110
2017-03-18T11:31:20.494Z,1095
2017-03-18T11:32:21.087Z,1115
2017-03-18T11:33:21.068Z,1155
2017-03-18T11:34:20.744Z,1215
2017-03-18T11:35:21.016Z,1280
2017-03-18T11:36:21.004Z,1315
2017-03-18T11:37:21.009Z,1375
2017-03-18T11:38:20.989Z,1420
2017-03-18T11:39:20.963Z,1455
2017-03-18T11:40:20.944Z,1440
2017-03-18T11:41:20.903Z,1405
2017-03-18T11:42:20.607Z,1365
2017-03-18T11:43:20.282Z,1290
2017-03-18T11:44:20.552Z,1240
2017-03-18T11:45:20.834Z,1170
2017-03-18T11:46:20.532Z,1135
2017-03-18T11:47:20.842Z,1110
2017-03-18T11:48:20.499Z,1115
2017-03-18T11:49:20.472Z,1130
2017-03-18T11:50:20.479Z,1155
2017-03-18T11:51:20.418Z,1145
2017-03-18T11:52:20.400Z,1125
2017-03-18T11:53:20.706Z,1115
2017-03-18T11:54:20.076Z,1075
2017-03-18T11:55:20.650Z,1045
2017-03-18T11:56:20.640Z,1020
2017-03-18T11:57:20.632Z,995
2017-03-18T11:58:20.611Z,985
2017-03-18T11:59:20.583Z,990
2017-03-18T12:00:20.541Z,960
2017-03-18T12:01:20.551Z,935
2017-03-18T12:02:20.527Z,930
2017-03-18T12:03:20.496Z,935
2017-03-18T12:04:20.507Z,920
2017-03-18T12:05:20.472Z,900
2017-03-18T12:06:20.467Z,915
2017-03-18T12:07:20.132Z,935
2017-03-18T12:08:20.420Z,965
2017-03-18T12:09:20.415Z,1020
2017-03-18T12:10:20.378Z,1105
2017-03-18T12:11:20.357Z,1115
2017-03-18T12:12:20.357Z,1135
2017-03-18T12:13:20.328Z,1160
2017-03-18T12:14:20.312Z,1145
2017-03-18T12:15:20.274Z,1180
2017-03-18T12:16:20.275Z,1185
2017-03-18T12:17:20.246Z,1200
2017-03-18T12:18:20.214Z,1165
2017-03-18T12:19:20.206Z,1160
2017-03-18T12:20:20.209Z,1185
2017-03-18T12:21:20.159Z,1165
2017-03-18T12:22:20.152Z,1175
2017-03-18T12:23:20.131Z,1180
2017-03-18T12:24:20.125Z,1220
2017-03-18T12:25:20.090Z,1260
2017-03-18T12:26:20.045Z,1275
2017-03-18T12:27:20.055Z,1345
2017-03-18T12:28:20.033Z,1385
2017-03-18T12:29:20.020Z,1395
2017-03-18T12:30:19.982Z,1380
2017-03-18T12:31:19.973Z,1400
2017-03-18T12:32:19.958Z,1395
2017-03-18T12:33:19.944Z,1370
2017-03-18T12:34:19.917Z,1370
2017-03-18T12:35:19.877Z,1330
2017-03-18T12:36:19.869Z,1320
2017-03-18T12:37:19.572Z,1275
2017-03-18T12:38:19.536Z,1285
2017-03-18T12:39:19.514Z,1270
2017-03-18T12:40:19.466Z,1280
2017-03-18T12:41:19.791Z,1265
2017-03-18T12:42:19.769Z,1225
2017-03-18T12:43:19.752Z,1130
2017-03-18T12:44:19.746Z,1015
2017-03-18T12:45:19.699Z,925
2017-03-18T12:46:19.675Z,950
2017-03-18T12:47:19.351Z,1055
2017-03-18T12:48:19.640Z,1105
2017-03-18T12:49:19.617Z,1145
2017-03-18T12:50:19.607Z,1195
2017-03-18T12:51:19.262Z,1240
2017-03-18T12:52:19.257Z,1210
2017-03-18T12:53:19.573Z,1190
2017-03-18T12:54:19.511Z,1190
2017-03-18T12:55:19.501Z,1165
2017-03-18T12:56:19.478Z,1155
2017-03-18T12:57:19.166Z,1125
2017-03-18T12:58:19.152Z,1110
2017-03-18T12:59:19.423Z,1155
2017-03-18T13:00:19.404Z,1170
2017-03-18T13:01:19.092Z,1180
2017-03-18T13:02:19.097Z,1215
2017-03-18T13:03:19.045Z,1230
2017-03-18T13:04:19.317Z,1250
2017-03-18T13:05:18.986Z,1300
2017-03-18T13:06:18.977Z,1330
2017-03-18T13:07:18.970Z,1330
2017-03-18T13:08:18.968Z,1345
2017-03-18T13:09:19.237Z,1355
2017-03-18T13:10:19.210Z,1345
2017-03-18T13:11:19.198Z,1335
2017-03-18T13:12:19.178Z,1340
2017-03-18T13:13:18.872Z,1335
2017-03-18T13:14:18.830Z,1310
2017-03-18T13:15:19.103Z,1270
2017-03-18T13:16:19.091Z,1290
2017-03-18T13:17:19.124Z,1295
2017-03-18T13:18:18.754Z,1245
2017-03-18T13:19:19.037Z,1210
2017-03-18T13:20:18.712Z,1120
2017-03-18T13:21:19.006Z,1080
2017-03-18T13:22:18.975Z,1115
2017-03-18T13:23:18.963Z,1090
2017-03-18T13:24:18.958Z,1115
2017-03-18T13:25:18.919Z,1095
2017-03-18T13:26:18.917Z,1095
2017-03-18T13:27:18.881Z,1100
2017-03-18T13:28:18.846Z,1075
2017-03-18T13:29:18.837Z,1060
2017-03-18T13:30:18.989Z,1045
2017-03-18T13:31:18.526Z,1050
2017-03-18T13:32:18.797Z,1000
2017-03-18T13:33:18.763Z,995
2017-03-18T13:34:18.746Z,1005
2017-03-18T13:35:18.714Z,1025
2017-03-18T13:36:18.717Z,1050
2017-03-18T13:37:18.729Z,1045
2017-03-18T13:38:18.368Z,985
2017-03-18T13:39:18.656Z,930
2017-03-18T13:40:18.623Z,910
2017-03-18T13:41:18.603Z,910
2017-03-18T13:42:18.604Z,920
2017-03-18T13:43:18.574Z,920
2017-03-18T13:44:18.571Z,905
2017-03-18T13:45:18.541Z,895
2017-03-18T13:46:18.511Z,875
2017-03-18T13:47:18.482Z,880
2017-03-18T13:48:18.481Z,905
2017-03-18T13:49:18.444Z,910
2017-03-18T13:50:18.437Z,905
2017-03-18T13:51:18.422Z,930
2017-03-18T13:52:18.419Z,925
2017-03-18T13:53:18.386Z,935
2017-03-18T13:54:18.348Z,950
2017-03-18T13:55:18.336Z,900
2017-03-18T13:56:18.325Z,850
2017-03-18T13:57:18.300Z,820
2017-03-18T13:58:18.281Z,825
2017-03-18T13:59:18.255Z,825
2017-03-18T14:00:18.267Z,865